sensor_id;sensor_type;location;lat;lon;timestamp;pressure;altitude;pressure_sealevel;temperature;humidity
62051;BME280;48008;51.204;6.766;2022-10-16T00:01:16;100689.53;;;13.59;97.32
62051;BME280;48008;51.204;6.766;2022-10-16T00:03:44;100686.69;;;13.60;97.04
62051;BME280;48008;51.204;6.766;2022-10-16T00:06:11;100685.72;;;13.53;97.45
62051;BME280;48008;51.204;6.766;2022-10-16T00:08:39;100695.25;;;13.48;98.03
62051;BME280;48008;51.204;6.766;2022-10-16T00:11:08;100691.94;;;13.46;97.86
62051;BME280;48008;51.204;6.766;2022-10-16T00:13:37;100691.44;;;13.42;97.91
62051;BME280;48008;51.204;6.766;2022-10-16T00:16:04;100699.81;;;13.39;98.16
62051;BME280;48008;51.204;6.766;2022-10-16T00:18:31;100700.47;;;13.41;98.85
62051;BME280;48008;51.204;6.766;2022-10-16T00:21:03;100714.13;;;13.38;98.47
62051;BME280;48008;51.204;6.766;2022-10-16T00:23:33;100713.13;;;13.39;98.65
62051;BME280;48008;51.204;6.766;2022-10-16T00:26:03;100706.06;;;13.46;98.42
62051;BME280;48008;51.204;6.766;2022-10-16T00:28:31;100702.94;;;13.42;98.56
62051;BME280;48008;51.204;6.766;2022-10-16T00:30:58;100702.25;;;13.40;98.11
62051;BME280;48008;51.204;6.766;2022-10-16T00:33:25;100695.81;;;13.35;99.00
62051;BME280;48008;51.204;6.766;2022-10-16T00:35:51;100692.81;;;13.38;98.54
62051;BME280;48008;51.204;6.766;2022-10-16T00:38:18;100688.66;;;13.35;99.37
62051;BME280;48008;51.204;6.766;2022-10-16T00:40:45;100687.63;;;13.36;98.87
62051;BME280;48008;51.204;6.766;2022-10-16T00:43:14;100695.44;;;13.30;99.15
62051;BME280;48008;51.204;6.766;2022-10-16T00:45:41;100690.47;;;13.35;99.28
62051;BME280;48008;51.204;6.766;2022-10-16T00:48:11;100688.28;;;13.38;99.48
62051;BME280;48008;51.204;6.766;2022-10-16T00:50:39;100684.97;;;13.36;98.91
62051;BME280;48008;51.204;6.766;2022-10-16T00:53:08;100675.81;;;13.39;99.04
62051;BME280;48008;51.204;6.766;2022-10-16T00:55:35;100675.13;;;13.37;99.09
62051;BME280;48008;51.204;6.766;2022-10-16T00:58:03;100680.13;;;13.40;99.37
62051;BME280;48008;51.204;6.766;2022-10-16T01:00:30;100678.66;;;13.37;99.69
62051;BME280;48008;51.204;6.766;2022-10-16T01:02:59;100685.50;;;13.32;99.64
62051;BME280;48008;51.204;6.766;2022-10-16T01:05:33;100678.34;;;13.32;100.00
62051;BME280;48008;51.204;6.766;2022-10-16T01:08:10;100684.31;;;13.34;99.79
62051;BME280;48008;51.204;6.766;2022-10-16T01:10:52;100693.16;;;13.27;100.00
62051;BME280;48008;51.204;6.766;2022-10-16T01:13:26;100704.97;;;13.24;100.00
62051;BME280;48008;51.204;6.766;2022-10-16T01:16:02;100706.00;;;13.23;100.00
62051;BME280;48008;51.204;6.766;2022-10-16T01:18:43;100707.16;;;13.20;100.00
62051;BME280;48008;51.204;6.766;2022-10-16T01:21:32;100698.19;;;13.13;100.00
62051;BME280;48008;51.204;6.766;2022-10-16T01:24:12;100705.84;;;13.16;100.00
62051;BME280;48008;51.204;6.766;2022-10-16T01:30:02;100697.34;;;13.21;100.00
62051;BME280;48008;51.204;6.766;2022-10-16T01:32:42;100703.50;;;13.21;100.00
62051;BME280;48008;51.204;6.766;2022-10-16T01:35:32;100702.00;;;13.19;100.00
62051;BME280;48008;51.204;6.766;2022-10-16T01:38:08;100697.50;;;13.19;100.00
62051;BME280;48008;51.204;6.766;2022-10-16T01:40:39;100699.34;;;13.19;100.00
62051;BME280;48008;51.204;6.766;2022-10-16T01:43:12;100689.53;;;13.19;100.00
62051;BME280;48008;51.204;6.766;2022-10-16T01:45:44;100696.38;;;13.14;100.00
62051;BME280;48008;51.204;6.766;2022-10-16T01:48:14;100698.00;;;13.15;100.00
62051;BME280;48008;51.204;6.766;2022-10-16T01:50:44;100699.69;;;13.16;100.00
62051;BME280;48008;51.204;6.766;2022-10-16T01:53:17;100706.69;;;13.09;100.00
62051;BME280;48008;51.204;6.766;2022-10-16T01:55:46;100715.50;;;13.17;100.00
62051;BME280;48008;51.204;6.766;2022-10-16T01:58:14;100711.16;;;13.24;100.00
62051;BME280;48008;51.204;6.766;2022-10-16T02:00:44;100718.94;;;13.26;100.00
62051;BME280;48008;51.204;6.766;2022-10-16T02:03:15;100713.81;;;13.24;100.00
62051;BME280;48008;51.204;6.766;2022-10-16T02:05:47;100711.47;;;13.21;100.00
62051;BME280;48008;51.204;6.766;2022-10-16T02:08:17;100699.31;;;13.27;100.00
62051;BME280;48008;51.204;6.766;2022-10-16T02:10:43;100705.16;;;13.31;100.00
62051;BME280;48008;51.204;6.766;2022-10-16T02:13:33;100706.81;;;13.23;100.00
62051;BME280;48008;51.204;6.766;2022-10-16T02:16:02;100720.16;;;13.32;100.00
62051;BME280;48008;51.204;6.766;2022-10-16T02:18:29;100723.09;;;13.37;100.00
62051;BME280;48008;51.204;6.766;2022-10-16T02:21:00;100718.97;;;13.34;100.00
62051;BME280;48008;51.204;6.766;2022-10-16T02:23:37;100724.78;;;13.38;100.00
62051;BME280;48008;51.204;6.766;2022-10-16T02:26:09;100724.13;;;13.36;100.00
62051;BME280;48008;51.204;6.766;2022-10-16T02:28:43;100720.63;;;13.27;100.00
62051;BME280;48008;51.204;6.766;2022-10-16T02:31:11;100727.28;;;13.31;100.00
62051;BME280;48008;51.204;6.766;2022-10-16T02:33:42;100724.63;;;13.23;99.83
62051;BME280;48008;51.204;6.766;2022-10-16T02:36:10;100728.28;;;13.22;98.98
62051;BME280;48008;51.204;6.766;2022-10-16T02:38:38;100727.94;;;13.25;98.40
62051;BME280;48008;51.204;6.766;2022-10-16T02:41:05;100729.25;;;13.29;98.79
62051;BME280;48008;51.204;6.766;2022-10-16T02:43:32;100726.59;;;13.29;98.06
62051;BME280;48008;51.204;6.766;2022-10-16T02:46:00;100725.09;;;13.35;98.01
62051;BME280;48008;51.204;6.766;2022-10-16T02:48:27;100714.28;;;13.36;98.33
62051;BME280;48008;51.204;6.766;2022-10-16T02:50:53;100715.97;;;13.37;98.79
62051;BME280;48008;51.204;6.766;2022-10-16T02:53:20;100713.13;;;13.39;96.54
62051;BME280;48008;51.204;6.766;2022-10-16T02:55:46;100720.59;;;13.43;96.13
62051;BME280;48008;51.204;6.766;2022-10-16T02:58:13;100735.53;;;13.53;95.56
62051;BME280;48008;51.204;6.766;2022-10-16T03:00:40;100731.56;;;13.49;95.63
62051;BME280;48008;51.204;6.766;2022-10-16T03:03:06;100725.41;;;13.48;95.59
62051;BME280;48008;51.204;6.766;2022-10-16T03:05:33;100728.44;;;13.37;95.28
62051;BME280;48008;51.204;6.766;2022-10-16T03:08:00;100735.75;;;13.35;96.06
62051;BME280;48008;51.204;6.766;2022-10-16T03:10:27;100723.28;;;13.27;95.89
62051;BME280;48008;51.204;6.766;2022-10-16T03:12:53;100723.97;;;13.21;96.14
62051;BME280;48008;51.204;6.766;2022-10-16T03:15:20;100717.16;;;13.18;97.02
62051;BME280;48008;51.204;6.766;2022-10-16T03:17:47;100718.81;;;13.19;97.68
62051;BME280;48008;51.204;6.766;2022-10-16T03:20:13;100715.94;;;13.29;96.43
62051;BME280;48008;51.204;6.766;2022-10-16T03:22:40;100715.63;;;13.24;96.51
62051;BME280;48008;51.204;6.766;2022-10-16T03:25:07;100716.09;;;13.28;97.05
62051;BME280;48008;51.204;6.766;2022-10-16T03:27:34;100717.13;;;13.27;95.98
62051;BME280;48008;51.204;6.766;2022-10-16T03:30:01;100722.94;;;13.30;96.57
62051;BME280;48008;51.204;6.766;2022-10-16T03:32:28;100730.09;;;13.30;96.99
62051;BME280;48008;51.204;6.766;2022-10-16T03:34:55;100724.75;;;13.30;96.93
62051;BME280;48008;51.204;6.766;2022-10-16T03:37:23;100727.13;;;13.24;96.98
62051;BME280;48008;51.204;6.766;2022-10-16T03:39:50;100726.66;;;13.21;95.97
62051;BME280;48008;51.204;6.766;2022-10-16T03:42:17;100742.09;;;13.25;95.45
62051;BME280;48008;51.204;6.766;2022-10-16T03:44:44;100734.28;;;13.24;95.01
62051;BME280;48008;51.204;6.766;2022-10-16T03:47:11;100729.97;;;13.23;96.15
62051;BME280;48008;51.204;6.766;2022-10-16T03:49:38;100726.81;;;13.19;95.76
62051;BME280;48008;51.204;6.766;2022-10-16T03:52:04;100729.31;;;13.21;96.14
62051;BME280;48008;51.204;6.766;2022-10-16T03:54:31;100741.28;;;13.17;95.87
62051;BME280;48008;51.204;6.766;2022-10-16T03:56:58;100746.81;;;13.15;95.95
62051;BME280;48008;51.204;6.766;2022-10-16T03:59:26;100745.78;;;13.16;95.52
62051;BME280;48008;51.204;6.766;2022-10-16T04:01:52;100740.63;;;13.15;96.00
62051;BME280;48008;51.204;6.766;2022-10-16T04:04:19;100747.97;;;13.13;96.41
62051;BME280;48008;51.204;6.766;2022-10-16T04:06:45;100755.78;;;13.06;96.08
62051;BME280;48008;51.204;6.766;2022-10-16T04:09:12;100755.97;;;13.04;96.66
62051;BME280;48008;51.204;6.766;2022-10-16T04:11:39;100752.66;;;13.02;95.71
62051;BME280;48008;51.204;6.766;2022-10-16T04:14:05;100759.47;;;13.05;95.78
62051;BME280;48008;51.204;6.766;2022-10-16T04:16:32;100773.78;;;13.04;96.11
62051;BME280;48008;51.204;6.766;2022-10-16T04:18:59;100764.78;;;12.97;95.38
62051;BME280;48008;51.204;6.766;2022-10-16T04:21:25;100773.13;;;13.02;96.35
62051;BME280;48008;51.204;6.766;2022-10-16T04:23:52;100775.94;;;13.00;96.52
62051;BME280;48008;51.204;6.766;2022-10-16T04:26:19;100787.94;;;13.04;96.22
62051;BME280;48008;51.204;6.766;2022-10-16T04:28:46;100786.44;;;13.02;96.83
62051;BME280;48008;51.204;6.766;2022-10-16T04:31:13;100796.25;;;12.93;96.82
62051;BME280;48008;51.204;6.766;2022-10-16T04:33:42;100794.44;;;12.85;96.20
62051;BME280;48008;51.204;6.766;2022-10-16T04:36:09;100794.28;;;12.87;96.85
62051;BME280;48008;51.204;6.766;2022-10-16T04:38:36;100794.13;;;12.89;96.82
62051;BME280;48008;51.204;6.766;2022-10-16T04:41:04;100781.66;;;12.81;97.04
62051;BME280;48008;51.204;6.766;2022-10-16T04:43:30;100767.97;;;12.84;97.48
62051;BME280;48008;51.204;6.766;2022-10-16T04:45:57;100776.31;;;12.81;97.77
62051;BME280;48008;51.204;6.766;2022-10-16T04:48:24;100782.97;;;12.77;97.12
62051;BME280;48008;51.204;6.766;2022-10-16T04:50:50;100789.78;;;12.79;97.83
62051;BME280;48008;51.204;6.766;2022-10-16T04:53:18;100799.94;;;12.76;97.03
62051;BME280;48008;51.204;6.766;2022-10-16T04:55:45;100806.09;;;12.76;97.32
62051;BME280;48008;51.204;6.766;2022-10-16T04:58:12;100816.25;;;12.81;97.34
62051;BME280;48008;51.204;6.766;2022-10-16T05:00:39;100811.09;;;12.79;97.15
62051;BME280;48008;51.204;6.766;2022-10-16T05:03:06;100812.44;;;12.75;96.81
62051;BME280;48008;51.204;6.766;2022-10-16T05:05:35;100815.75;;;12.69;96.72
62051;BME280;48008;51.204;6.766;2022-10-16T05:08:02;100810.91;;;12.73;96.70
62051;BME280;48008;51.204;6.766;2022-10-16T05:10:29;100813.09;;;12.77;97.34
62051;BME280;48008;51.204;6.766;2022-10-16T05:12:56;100815.59;;;12.79;97.33
62051;BME280;48008;51.204;6.766;2022-10-16T05:15:23;100812.59;;;12.74;97.64
62051;BME280;48008;51.204;6.766;2022-10-16T05:17:53;100825.41;;;12.70;97.42
62051;BME280;48008;51.204;6.766;2022-10-16T05:20:20;100838.19;;;12.75;97.03
62051;BME280;48008;51.204;6.766;2022-10-16T05:22:47;100843.50;;;12.75;96.99
62051;BME280;48008;51.204;6.766;2022-10-16T05:25:14;100840.34;;;12.71;97.32
62051;BME280;48008;51.204;6.766;2022-10-16T05:27:40;100836.53;;;12.74;97.47
62051;BME280;48008;51.204;6.766;2022-10-16T05:30:08;100832.38;;;12.71;97.63
62051;BME280;48008;51.204;6.766;2022-10-16T05:32:35;100833.88;;;12.74;97.38
62051;BME280;48008;51.204;6.766;2022-10-16T05:35:02;100830.22;;;12.75;97.32
62051;BME280;48008;51.204;6.766;2022-10-16T05:37:29;100842.16;;;12.62;98.32
62051;BME280;48008;51.204;6.766;2022-10-16T05:39:56;100845.34;;;12.66;98.37
62051;BME280;48008;51.204;6.766;2022-10-16T05:42:22;100845.00;;;12.69;98.08
62051;BME280;48008;51.204;6.766;2022-10-16T05:44:49;100851.50;;;12.66;98.42
62051;BME280;48008;51.204;6.766;2022-10-16T05:47:16;100862.16;;;12.66;98.57
62051;BME280;48008;51.204;6.766;2022-10-16T05:49:42;100860.31;;;12.67;98.61
62051;BME280;48008;51.204;6.766;2022-10-16T05:52:09;100859.66;;;12.65;98.88
62051;BME280;48008;51.204;6.766;2022-10-16T05:54:36;100867.31;;;12.68;98.55
62051;BME280;48008;51.204;6.766;2022-10-16T05:57:02;100866.31;;;12.69;98.40
62051;BME280;48008;51.204;6.766;2022-10-16T05:59:29;100866.16;;;12.71;98.67
62051;BME280;48008;51.204;6.766;2022-10-16T06:01:56;100884.13;;;12.68;99.23
62051;BME280;48008;51.204;6.766;2022-10-16T06:04:23;100889.75;;;12.65;99.24
62051;BME280;48008;51.204;6.766;2022-10-16T06:06:50;100883.94;;;12.70;98.87
62051;BME280;48008;51.204;6.766;2022-10-16T06:09:16;100882.28;;;12.69;99.00
62051;BME280;48008;51.204;6.766;2022-10-16T06:11:43;100895.44;;;12.71;98.84
62051;BME280;48008;51.204;6.766;2022-10-16T06:14:10;100887.13;;;12.74;99.25
62051;BME280;48008;51.204;6.766;2022-10-16T06:16:37;100895.44;;;12.71;98.80
62051;BME280;48008;51.204;6.766;2022-10-16T06:19:04;100884.94;;;12.69;98.98
62051;BME280;48008;51.204;6.766;2022-10-16T06:21:34;100888.63;;;12.68;98.90
62051;BME280;48008;51.204;6.766;2022-10-16T06:24:01;100896.09;;;12.73;99.65
62051;BME280;48008;51.204;6.766;2022-10-16T06:26:29;100901.09;;;12.76;99.39
62051;BME280;48008;51.204;6.766;2022-10-16T06:28:58;100900.94;;;12.77;99.65
62051;BME280;48008;51.204;6.766;2022-10-16T06:31:27;100893.09;;;12.84;98.71
62051;BME280;48008;51.204;6.766;2022-10-16T06:33:57;100898.59;;;12.91;98.48
62051;BME280;48008;51.204;6.766;2022-10-16T06:36:24;100898.09;;;12.87;99.03
62051;BME280;48008;51.204;6.766;2022-10-16T06:38:52;100900.94;;;12.94;99.33
62051;BME280;48008;51.204;6.766;2022-10-16T06:41:21;100910.75;;;12.93;99.67
62051;BME280;48008;51.204;6.766;2022-10-16T06:43:48;100923.25;;;13.01;99.18
62051;BME280;48008;51.204;6.766;2022-10-16T06:46:18;100923.75;;;13.04;97.52
62051;BME280;48008;51.204;6.766;2022-10-16T06:48:46;100930.09;;;13.12;97.61
62051;BME280;48008;51.204;6.766;2022-10-16T06:51:16;100934.22;;;13.14;97.85
62051;BME280;48008;51.204;6.766;2022-10-16T06:53:45;100941.56;;;13.20;97.11
62051;BME280;48008;51.204;6.766;2022-10-16T06:56:27;100943.56;;;13.27;96.46
62051;BME280;48008;51.204;6.766;2022-10-16T06:58:56;100946.91;;;13.37;95.32
62051;BME280;48008;51.204;6.766;2022-10-16T07:01:24;100957.25;;;13.40;96.00
62051;BME280;48008;51.204;6.766;2022-10-16T07:03:51;100955.72;;;13.46;95.52
62051;BME280;48008;51.204;6.766;2022-10-16T07:06:20;100963.41;;;13.49;95.17
62051;BME280;48008;51.204;6.766;2022-10-16T07:08:48;100969.06;;;13.46;95.27
62051;BME280;48008;51.204;6.766;2022-10-16T07:11:18;100959.91;;;13.40;95.06
62051;BME280;48008;51.204;6.766;2022-10-16T07:13:45;100971.88;;;13.44;95.59
62051;BME280;48008;51.204;6.766;2022-10-16T07:16:16;100972.53;;;13.46;95.74
62051;BME280;48008;51.204;6.766;2022-10-16T07:18:44;100968.41;;;13.43;96.38
62051;BME280;48008;51.204;6.766;2022-10-16T07:21:14;100977.91;;;13.38;95.77
62051;BME280;48008;51.204;6.766;2022-10-16T07:23:42;100990.03;;;13.40;95.41
62051;BME280;48008;51.204;6.766;2022-10-16T07:26:09;100992.38;;;13.43;95.53
62051;BME280;48008;51.204;6.766;2022-10-16T07:28:37;100998.22;;;13.47;95.48
62051;BME280;48008;51.204;6.766;2022-10-16T07:31:06;100997.22;;;13.48;95.30
62051;BME280;48008;51.204;6.766;2022-10-16T07:33:34;101005.19;;;13.56;95.36
62051;BME280;48008;51.204;6.766;2022-10-16T07:36:01;101000.03;;;13.55;95.97
62051;BME280;48008;51.204;6.766;2022-10-16T07:38:28;101004.88;;;13.59;96.32
62051;BME280;48008;51.204;6.766;2022-10-16T07:40:57;101008.38;;;13.52;95.58
62051;BME280;48008;51.204;6.766;2022-10-16T07:43:25;101014.38;;;13.54;95.28
62051;BME280;48008;51.204;6.766;2022-10-16T07:45:52;101020.88;;;13.59;95.12
62051;BME280;48008;51.204;6.766;2022-10-16T07:48:19;101024.19;;;13.78;94.35
62051;BME280;48008;51.204;6.766;2022-10-16T07:50:46;101032.16;;;13.94;93.53
62051;BME280;48008;51.204;6.766;2022-10-16T07:53:14;101029.13;;;14.14;92.78
62051;BME280;48008;51.204;6.766;2022-10-16T07:55:40;101033.78;;;14.28;91.69
62051;BME280;48008;51.204;6.766;2022-10-16T07:58:07;101033.41;;;14.39;89.98
62051;BME280;48008;51.204;6.766;2022-10-16T08:00:36;101028.88;;;14.48;91.03
62051;BME280;48008;51.204;6.766;2022-10-16T08:03:03;101047.22;;;14.59;89.09
62051;BME280;48008;51.204;6.766;2022-10-16T08:05:32;101047.00;;;14.69;89.26
62051;BME280;48008;51.204;6.766;2022-10-16T08:08:01;101052.63;;;14.83;88.16
62051;BME280;48008;51.204;6.766;2022-10-16T08:10:29;101054.03;;;14.93;87.30
62051;BME280;48008;51.204;6.766;2022-10-16T08:12:55;101057.56;;;14.94;87.15
62051;BME280;48008;51.204;6.766;2022-10-16T08:15:22;101056.53;;;14.95;86.34
62051;BME280;48008;51.204;6.766;2022-10-16T08:17:58;101053.88;;;14.95;86.65
62051;BME280;48008;51.204;6.766;2022-10-16T08:20:26;101061.69;;;15.05;85.89
62051;BME280;48008;51.204;6.766;2022-10-16T08:22:54;101068.16;;;15.10;86.74
62051;BME280;48008;51.204;6.766;2022-10-16T08:25:22;101072.28;;;15.21;85.65
62051;BME280;48008;51.204;6.766;2022-10-16T08:27:49;101078.50;;;15.13;85.04
62051;BME280;48008;51.204;6.766;2022-10-16T08:30:18;101079.84;;;15.09;85.58
62051;BME280;48008;51.204;6.766;2022-10-16T08:32:45;101077.16;;;15.09;85.79
62051;BME280;48008;51.204;6.766;2022-10-16T08:35:13;101077.66;;;15.13;85.85
62051;BME280;48008;51.204;6.766;2022-10-16T08:37:40;101087.13;;;15.24;85.27
62051;BME280;48008;51.204;6.766;2022-10-16T08:40:17;101093.59;;;15.29;85.36
62051;BME280;48008;51.204;6.766;2022-10-16T08:43:12;101096.16;;;15.46;84.29
62051;BME280;48008;51.204;6.766;2022-10-16T08:48:49;101092.50;;;15.47;83.51
62051;BME280;48008;51.204;6.766;2022-10-16T08:51:31;101100.66;;;15.53;82.61
62051;BME280;48008;51.204;6.766;2022-10-16T08:54:03;101105.75;;;15.63;82.27
62051;BME280;48008;51.204;6.766;2022-10-16T08:56:30;101112.75;;;15.64;82.44
62051;BME280;48008;51.204;6.766;2022-10-16T08:58:58;101110.03;;;15.72;81.88
62051;BME280;48008;51.204;6.766;2022-10-16T09:01:37;101110.69;;;15.74;81.58
62051;BME280;48008;51.204;6.766;2022-10-16T09:06:47;101124.19;;;15.81;81.31
62051;BME280;48008;51.204;6.766;2022-10-16T09:12:21;101125.19;;;15.80;80.38
62051;BME280;48008;51.204;6.766;2022-10-16T09:15:15;101131.97;;;15.91;79.05
62051;BME280;48008;51.204;6.766;2022-10-16T09:20:49;101131.19;;;16.05;76.73
62051;BME280;48008;51.204;6.766;2022-10-16T09:23:21;101134.16;;;16.10;77.25
62051;BME280;48008;51.204;6.766;2022-10-16T09:25:50;101140.03;;;16.06;77.31
62051;BME280;48008;51.204;6.766;2022-10-16T09:28:18;101136.09;;;16.17;77.45
62051;BME280;48008;51.204;6.766;2022-10-16T09:30:45;101148.09;;;16.21;77.21
62051;BME280;48008;51.204;6.766;2022-10-16T09:33:15;101148.09;;;16.21;77.75
62051;BME280;48008;51.204;6.766;2022-10-16T09:35:46;101155.59;;;16.25;76.41
62051;BME280;48008;51.204;6.766;2022-10-16T09:38:33;101148.63;;;16.39;75.55
62051;BME280;48008;51.204;6.766;2022-10-16T09:41:03;101153.97;;;16.39;75.09
62051;BME280;48008;51.204;6.766;2022-10-16T09:43:49;101147.13;;;16.37;75.42
62051;BME280;48008;51.204;6.766;2022-10-16T09:46:28;101144.91;;;16.40;76.49
62051;BME280;48008;51.204;6.766;2022-10-16T09:48:58;101139.84;;;16.45;76.53
62051;BME280;48008;51.204;6.766;2022-10-16T09:51:29;101148.34;;;16.49;74.65
62051;BME280;48008;51.204;6.766;2022-10-16T09:53:59;101144.03;;;16.63;73.44
62051;BME280;48008;51.204;6.766;2022-10-16T09:56:32;101150.31;;;16.70;74.31
62051;BME280;48008;51.204;6.766;2022-10-16T09:59:01;101158.13;;;16.72;72.08
62051;BME280;48008;51.204;6.766;2022-10-16T10:01:35;101151.50;;;16.67;72.85
62051;BME280;48008;51.204;6.766;2022-10-16T10:04:03;101154.91;;;16.76;72.88
62051;BME280;48008;51.204;6.766;2022-10-16T10:06:34;101151.88;;;16.79;72.85
62051;BME280;48008;51.204;6.766;2022-10-16T10:12:00;101145.13;;;16.98;71.85
62051;BME280;48008;51.204;6.766;2022-10-16T10:14:38;101147.97;;;17.26;72.54
62051;BME280;48008;51.204;6.766;2022-10-16T10:17:10;101149.94;;;17.76;68.98
62051;BME280;48008;51.204;6.766;2022-10-16T10:19:40;101153.28;;;17.99;67.83
62051;BME280;48008;51.204;6.766;2022-10-16T10:22:18;101163.25;;;19.38;63.38
62051;BME280;48008;51.204;6.766;2022-10-16T10:25:12;101171.56;;;19.02;62.53
62051;BME280;48008;51.204;6.766;2022-10-16T10:33:33;101150.25;;;18.66;62.91
62051;BME280;48008;51.204;6.766;2022-10-16T10:36:14;101158.19;;;19.15;62.15
62051;BME280;48008;51.204;6.766;2022-10-16T10:39:02;101163.47;;;21.04;56.67
62051;BME280;48008;51.204;6.766;2022-10-16T10:44:37;101168.97;;;20.44;55.97
62051;BME280;48008;51.204;6.766;2022-10-16T10:50:07;101163.53;;;22.93;48.30
62051;BME280;48008;51.204;6.766;2022-10-16T10:53:04;101168.53;;;24.65;44.39
62051;BME280;48008;51.204;6.766;2022-10-16T10:58:53;101180.63;;;23.12;45.68
62051;BME280;48008;51.204;6.766;2022-10-16T11:01:50;101182.06;;;23.75;45.02
62051;BME280;48008;51.204;6.766;2022-10-16T11:07:21;101184.19;;;26.86;38.64
62051;BME280;48008;51.204;6.766;2022-10-16T11:09:57;101185.34;;;27.62;36.72
62051;BME280;48008;51.204;6.766;2022-10-16T11:12:28;101187.91;;;28.43;35.08
62051;BME280;48008;51.204;6.766;2022-10-16T11:15:07;101199.06;;;27.99;34.59
62051;BME280;48008;51.204;6.766;2022-10-16T11:17:42;101187.78;;;27.14;35.69
62051;BME280;48008;51.204;6.766;2022-10-16T11:20:18;101190.84;;;27.94;34.60
62051;BME280;48008;51.204;6.766;2022-10-16T11:22:51;101195.81;;;27.75;34.49
62051;BME280;48008;51.204;6.766;2022-10-16T11:25:26;101193.19;;;27.85;33.90
62051;BME280;48008;51.204;6.766;2022-10-16T11:28:14;101195.38;;;27.34;35.32
62051;BME280;48008;51.204;6.766;2022-10-16T11:30:48;101190.56;;;27.41;35.34
62051;BME280;48008;51.204;6.766;2022-10-16T11:33:59;101195.06;;;25.84;37.81
62051;BME280;48008;51.204;6.766;2022-10-16T11:36:14;101185.81;;;26.31;37.30
62051;BME280;48008;51.204;6.766;2022-10-16T11:38:55;101180.50;;;26.97;36.30
62051;BME280;48008;51.204;6.766;2022-10-16T11:45:21;101200.19;;;24.05;41.35
62051;BME280;48008;51.204;6.766;2022-10-16T11:47:41;101199.16;;;24.18;40.79
62051;BME280;48008;51.204;6.766;2022-10-16T11:50:33;101203.78;;;24.77;40.04
62051;BME280;48008;51.204;6.766;2022-10-16T11:53:32;101197.00;;;24.08;41.72
62051;BME280;48008;51.204;6.766;2022-10-16T11:56:03;101198.84;;;23.54;42.19
62051;BME280;48008;51.204;6.766;2022-10-16T11:58:55;101188.63;;;23.00;43.56
62051;BME280;48008;51.204;6.766;2022-10-16T12:01:52;101199.25;;;23.02;44.27
62051;BME280;48008;51.204;6.766;2022-10-16T12:04:31;101186.53;;;23.03;45.03
62051;BME280;48008;51.204;6.766;2022-10-16T12:07:10;101190.63;;;23.30;46.39
62051;BME280;48008;51.204;6.766;2022-10-16T12:09:39;101204.41;;;23.41;44.14
62051;BME280;48008;51.204;6.766;2022-10-16T12:12:41;101197.19;;;22.35;46.57
62051;BME280;48008;51.204;6.766;2022-10-16T12:15:21;101201.94;;;23.02;44.87
62051;BME280;48008;51.204;6.766;2022-10-16T12:17:55;101198.59;;;23.07;44.71
62051;BME280;48008;51.204;6.766;2022-10-16T12:20:27;101205.88;;;22.62;45.14
62051;BME280;48008;51.204;6.766;2022-10-16T12:23:00;101189.34;;;22.96;44.88
62051;BME280;48008;51.204;6.766;2022-10-16T12:25:29;101201.59;;;23.66;43.68
62051;BME280;48008;51.204;6.766;2022-10-16T12:27:59;101192.44;;;24.09;42.90
62051;BME280;48008;51.204;6.766;2022-10-16T12:30:29;101204.88;;;24.64;40.54
62051;BME280;48008;51.204;6.766;2022-10-16T12:33:01;101187.00;;;25.03;40.22
62051;BME280;48008;51.204;6.766;2022-10-16T12:35:31;101184.44;;;24.49;41.93
62051;BME280;48008;51.204;6.766;2022-10-16T12:38:14;101192.00;;;24.71;41.76
62051;BME280;48008;51.204;6.766;2022-10-16T12:40:56;101186.66;;;23.75;43.49
62051;BME280;48008;51.204;6.766;2022-10-16T12:43:27;101189.19;;;22.91;44.76
62051;BME280;48008;51.204;6.766;2022-10-16T12:46:05;101179.41;;;23.08;45.97
62051;BME280;48008;51.204;6.766;2022-10-16T12:48:32;101196.91;;;22.69;47.94
62051;BME280;48008;51.204;6.766;2022-10-16T12:51:11;101190.28;;;21.82;48.01
62051;BME280;48008;51.204;6.766;2022-10-16T12:53:38;101192.47;;;21.67;49.79
62051;BME280;48008;51.204;6.766;2022-10-16T12:56:24;101203.84;;;21.24;50.67
62051;BME280;48008;51.204;6.766;2022-10-16T12:59:04;101190.13;;;21.77;48.88
62051;BME280;48008;51.204;6.766;2022-10-16T13:10:11;101180.97;;;22.60;47.32
62051;BME280;48008;51.204;6.766;2022-10-16T13:19:04;101197.38;;;25.76;39.69
62051;BME280;48008;51.204;6.766;2022-10-16T13:21:37;101192.97;;;25.29;38.82
62051;BME280;48008;51.204;6.766;2022-10-16T13:30:21;101209.78;;;24.31;42.26
62051;BME280;48008;51.204;6.766;2022-10-16T13:33:00;101198.50;;;24.58;42.40
62051;BME280;48008;51.204;6.766;2022-10-16T13:35:29;101206.38;;;24.71;41.37
62051;BME280;48008;51.204;6.766;2022-10-16T13:38:13;101192.38;;;25.15;40.37
62051;BME280;48008;51.204;6.766;2022-10-16T13:40:58;101202.66;;;25.82;39.67
62051;BME280;48008;51.204;6.766;2022-10-16T13:43:37;101188.34;;;25.87;38.97
62051;BME280;48008;51.204;6.766;2022-10-16T13:46:12;101193.31;;;24.57;40.85
62051;BME280;48008;51.204;6.766;2022-10-16T13:48:39;101189.78;;;23.60;42.81
62051;BME280;48008;51.204;6.766;2022-10-16T13:51:15;101198.84;;;23.35;44.62
62051;BME280;48008;51.204;6.766;2022-10-16T13:53:43;101195.97;;;23.79;42.93
62051;BME280;48008;51.204;6.766;2022-10-16T13:56:13;101197.56;;;23.56;43.95
62051;BME280;48008;51.204;6.766;2022-10-16T13:58:41;101193.72;;;22.72;46.81
62051;BME280;48008;51.204;6.766;2022-10-16T14:01:24;101203.31;;;21.60;47.99
62051;BME280;48008;51.204;6.766;2022-10-16T14:04:00;101204.84;;;21.36;49.65
62051;BME280;48008;51.204;6.766;2022-10-16T14:06:29;101202.84;;;21.12;50.19
62051;BME280;48008;51.204;6.766;2022-10-16T14:09:05;101205.88;;;20.77;51.06